Time;durP1;ratioP1;P1;durP2;ratioP2;P2;SDS_P1;SDS_P2;PMS_P1;PMS_P2;Temp;Humidity;BMP_temperature;BMP_pressure;BME280_temperature;BME280_humidity;BME280_pressure;Samples;Min_cycle;Max_cycle;Signal;HPM_P1;HPM_P2
2022/01/04 00:01:22;;;;;;;;;;;7.70;99.90;;;;;;5075168;28;19924;-78
2022/01/04 00:03:49;;;;;;;;;;;7.70;99.90;;;;;;5069429;28;19932;-78
2022/01/04 00:06:16;;;;;;;;;;;7.70;99.90;;;;;;5071956;28;19932;-80
2022/01/04 00:08:42;;;;;;;;;;;7.70;99.90;;;;;;5072327;28;19986;-79
2022/01/04 00:11:16;;;;;;;;;;;7.70;99.90;;;;;;5068968;28;20135;-78
2022/01/04 00:13:43;;;;;;;;;;;7.70;99.90;;;;;;5071858;28;19924;-77
2022/01/04 00:16:12;;;;;;;;;;;7.70;99.90;;;;;;5068779;28;20398;-78
2022/01/04 00:18:39;;;;;;;;;;;7.70;99.90;;;;;;5075285;28;19929;-79
2022/01/04 00:21:07;;;;;;;;;;;7.70;99.90;;;;;;5052811;28;20402;-78
2022/01/04 00:23:34;;;;;;;;;;;7.70;99.90;;;;;;5064729;28;19976;-79
2022/01/04 00:26:01;;;;;;;;;;;7.70;99.90;;;;;;5054419;28;19924;-78
2022/01/04 00:28:28;;;;;;;;;;;7.70;99.90;;;;;;5054957;28;19928;-79
2022/01/04 00:30:58;;;;;;;;;;;7.70;99.90;;;;;;5071964;28;20071;-79
2022/01/04 00:33:26;;;;;;;;;;;7.70;99.90;;;;;;5068057;28;19967;-79
2022/01/04 00:35:53;;;;;;;;;;;7.70;99.90;;;;;;5075992;28;19924;-79
2022/01/04 00:38:20;;;;;;;;;;;7.70;99.90;;;;;;5066507;28;19924;-78
2022/01/04 00:40:47;;;;;;;;;;;7.70;99.90;;;;;;5053942;28;19932;-78
2022/01/04 00:43:14;;;;;;;;;;;7.70;99.90;;;;;;5051615;28;20002;-79
2022/01/04 00:45:41;;;;;;;;;;;7.70;99.90;;;;;;5053877;28;19928;-79
2022/01/04 00:50:51;;;;;;;;;;;7.70;99.90;;;;;;5021380;28;19928;-78
2022/01/04 00:53:18;;;;;;;;;;;7.70;99.90;;;;;;5054643;28;19932;-79
2022/01/04 00:55:45;;;;;;;;;;;7.70;99.90;;;;;;5064958;28;19931;-78
2022/01/04 00:58:12;;;;;;;;;;;7.70;99.90;;;;;;5133150;22;19933;-78
2022/01/04 01:00:39;;;;;;;;;;;7.70;99.90;;;;;;5032199;28;19939;-77
2022/01/04 01:03:06;;;;;;;;;;;7.70;99.90;;;;;;5031873;28;19933;-78
2022/01/04 01:05:33;;;;;;;;;;;7.70;99.90;;;;;;5019263;28;20421;-77
2022/01/04 01:08:02;;;;;;;;;;;7.60;99.90;;;;;;5015663;28;20024;-77
2022/01/04 01:10:47;;;;;;;;;;;7.70;99.90;;;;;;5014895;28;20458;-77
2022/01/04 01:13:14;;;;;;;;;;;7.70;99.90;;;;;;5022928;28;19925;-77
2022/01/04 01:15:44;;;;;;;;;;;7.70;99.90;;;;;;5019006;28;19925;-77
2022/01/04 01:18:12;;;;;;;;;;;7.70;99.90;;;;;;5010200;28;20395;-77
2022/01/04 01:20:38;;;;;;;;;;;7.60;99.90;;;;;;4997322;28;19925;-77
2022/01/04 01:23:07;;;;;;;;;;;7.70;99.90;;;;;;5005633;28;19930;-77
2022/01/04 01:25:34;;;;;;;;;;;7.70;99.90;;;;;;5018203;28;19925;-77
2022/01/04 01:28:00;;;;;;;;;;;7.70;99.90;;;;;;4993726;28;20011;-77
2022/01/04 01:30:29;;;;;;;;;;;7.60;99.90;;;;;;5017659;28;19935;-77
2022/01/04 01:32:56;;;;;;;;;;;7.70;99.90;;;;;;5003076;28;19929;-78
2022/01/04 01:35:23;;;;;;;;;;;7.70;99.90;;;;;;5014442;28;20658;-77
2022/01/04 01:37:50;;;;;;;;;;;7.60;99.90;;;;;;5015251;28;19925;-77
2022/01/04 01:40:18;;;;;;;;;;;7.60;99.90;;;;;;5011421;28;19929;-77
2022/01/04 01:42:45;;;;;;;;;;;7.60;99.90;;;;;;5012003;28;19933;-77
2022/01/04 01:45:16;;;;;;;;;;;7.60;99.90;;;;;;5007965;28;19987;-77
2022/01/04 01:47:45;;;;;;;;;;;7.60;99.90;;;;;;5011418;28;20463;-77
2022/01/04 01:50:13;;;;;;;;;;;7.60;99.90;;;;;;5020519;28;19932;-77
2022/01/04 01:52:40;;;;;;;;;;;7.70;99.90;;;;;;4992662;28;20023;-77
2022/01/04 01:55:08;;;;;;;;;;;7.60;99.90;;;;;;5014632;28;19925;-77
2022/01/04 01:57:36;;;;;;;;;;;7.60;99.90;;;;;;5014293;28;19925;-77
2022/01/04 02:00:04;;;;;;;;;;;7.60;99.90;;;;;;5018049;28;19925;-77
2022/01/04 02:02:31;;;;;;;;;;;7.60;99.90;;;;;;5016001;28;19933;-78
2022/01/04 02:04:58;;;;;;;;;;;7.70;99.90;;;;;;5009487;28;20300;-77
2022/01/04 02:07:25;;;;;;;;;;;7.70;99.90;;;;;;5013019;28;19925;-77
2022/01/04 02:10:02;;;;;;;;;;;7.60;99.90;;;;;;5011670;28;19932;-77
2022/01/04 02:12:30;;;;;;;;;;;7.60;99.90;;;;;;5006582;28;19926;-77
2022/01/04 02:14:58;;;;;;;;;;;7.60;99.90;;;;;;5016203;28;19934;-78
2022/01/04 02:17:25;;;;;;;;;;;7.60;99.90;;;;;;5010718;28;19926;-77
2022/01/04 02:19:55;;;;;;;;;;;7.60;99.90;;;;;;5007669;28;19925;-78
2022/01/04 02:22:21;;;;;;;;;;;7.60;99.90;;;;;;5015041;28;20398;-77
2022/01/04 02:24:48;;;;;;;;;;;7.60;99.90;;;;;;5011263;28;20403;-77
2022/01/04 02:27:16;;;;;;;;;;;7.60;99.90;;;;;;5013714;28;20428;-78
2022/01/04 02:29:44;;;;;;;;;;;7.60;99.90;;;;;;5012950;28;19929;-77
2022/01/04 02:32:11;;;;;;;;;;;7.60;99.90;;;;;;5006656;28;19930;-78
2022/01/04 02:34:39;;;;;;;;;;;7.60;99.90;;;;;;5008751;28;19975;-77
2022/01/04 02:37:08;;;;;;;;;;;7.60;99.90;;;;;;4988872;28;19931;-77
2022/01/04 02:39:35;;;;;;;;;;;7.60;99.90;;;;;;5007414;28;20012;-77
2022/01/04 02:42:02;;;;;;;;;;;7.60;99.90;;;;;;5015833;28;19929;-78
2022/01/04 02:44:29;;;;;;;;;;;7.60;99.90;;;;;;5014054;28;20456;-77
2022/01/04 02:46:56;;;;;;;;;;;7.60;99.90;;;;;;5001354;28;19987;-78
2022/01/04 02:49:23;;;;;;;;;;;7.60;99.90;;;;;;5009805;28;19925;-77
2022/01/04 02:51:50;;;;;;;;;;;7.60;99.90;;;;;;5013056;28;19925;-77
2022/01/04 02:54:18;;;;;;;;;;;7.60;99.90;;;;;;5003159;28;19972;-77
2022/01/04 02:56:45;;;;;;;;;;;7.60;99.90;;;;;;5014622;28;19940;-77
2022/01/04 02:59:12;;;;;;;;;;;7.60;99.90;;;;;;5014524;28;19975;-77
2022/01/04 03:01:39;;;;;;;;;;;7.60;99.90;;;;;;5013600;28;19930;-77
2022/01/04 03:04:07;;;;;;;;;;;7.60;99.90;;;;;;5004430;28;20406;-77
2022/01/04 03:06:34;;;;;;;;;;;7.60;99.90;;;;;;5010085;28;19926;-77
2022/01/04 03:09:01;;;;;;;;;;;7.60;99.90;;;;;;5008237;28;20346;-77
2022/01/04 03:11:29;;;;;;;;;;;7.60;99.90;;;;;;5007350;28;20458;-77
2022/01/04 03:13:56;;;;;;;;;;;7.60;99.90;;;;;;4992298;28;19932;-77
2022/01/04 03:16:23;;;;;;;;;;;7.60;99.90;;;;;;5011287;28;20324;-77
2022/01/04 03:19:03;;;;;;;;;;;7.60;99.90;;;;;;5013409;28;20331;-77
2022/01/04 03:21:30;;;;;;;;;;;7.60;99.90;;;;;;5001310;28;19952;-77
2022/01/04 03:23:57;;;;;;;;;;;7.60;99.90;;;;;;4994216;28;19929;-77
2022/01/04 03:26:25;;;;;;;;;;;7.60;99.90;;;;;;5013945;28;19925;-77
2022/01/04 03:28:53;;;;;;;;;;;7.60;99.90;;;;;;5011103;28;19925;-77
2022/01/04 03:31:20;;;;;;;;;;;7.60;99.90;;;;;;5014544;28;19932;-77
2022/01/04 03:33:47;;;;;;;;;;;7.60;99.90;;;;;;5017005;28;19933;-77
2022/01/04 03:36:15;;;;;;;;;;;7.60;99.90;;;;;;5006581;28;19928;-77
2022/01/04 03:38:42;;;;;;;;;;;7.60;99.90;;;;;;5008739;28;19972;-77
2022/01/04 03:41:09;;;;;;;;;;;7.60;99.90;;;;;;5010936;28;20016;-77
2022/01/04 03:43:37;;;;;;;;;;;7.60;99.90;;;;;;5009774;28;19952;-77
2022/01/04 03:46:07;;;;;;;;;;;7.60;99.90;;;;;;4994070;28;20015;-77
2022/01/04 03:48:34;;;;;;;;;;;7.60;99.90;;;;;;5011123;28;19925;-78
2022/01/04 03:51:01;;;;;;;;;;;7.60;99.90;;;;;;5009684;28;20284;-78
2022/01/04 03:53:28;;;;;;;;;;;7.60;99.90;;;;;;5012973;28;20182;-77
2022/01/04 03:55:55;;;;;;;;;;;7.60;99.90;;;;;;5013294;28;19932;-77
2022/01/04 03:58:22;;;;;;;;;;;7.60;99.90;;;;;;5006470;28;19925;-77
2022/01/04 04:00:49;;;;;;;;;;;7.60;99.90;;;;;;4993547;28;20015;-77
2022/01/04 04:03:18;;;;;;;;;;;7.60;99.90;;;;;;5008316;28;19925;-77
2022/01/04 04:05:44;;;;;;;;;;;7.60;99.90;;;;;;5009655;28;19930;-77
2022/01/04 04:08:11;;;;;;;;;;;7.60;99.90;;;;;;4999611;28;20435;-77
2022/01/04 04:10:38;;;;;;;;;;;7.60;99.90;;;;;;5012730;28;19949;-78
2022/01/04 04:13:05;;;;;;;;;;;7.60;99.90;;;;;;5004108;28;19926;-77
2022/01/04 04:15:32;;;;;;;;;;;7.60;99.90;;;;;;5011576;28;19925;-77
2022/01/04 04:17:59;;;;;;;;;;;7.60;99.90;;;;;;5011255;28;19980;-78
2022/01/04 04:20:28;;;;;;;;;;;7.60;99.90;;;;;;5007605;28;20009;-77
2022/01/04 04:22:55;;;;;;;;;;;7.60;99.90;;;;;;5010029;28;20024;-77
2022/01/04 04:25:21;;;;;;;;;;;7.60;99.90;;;;;;5007338;28;21766;-77
2022/01/04 04:27:48;;;;;;;;;;;7.60;99.90;;;;;;5010737;28;20454;-77
2022/01/04 04:30:15;;;;;;;;;;;7.60;99.90;;;;;;5007102;28;20292;-77
2022/01/04 04:32:42;;;;;;;;;;;7.60;99.90;;;;;;5005045;28;19952;-77
2022/01/04 04:35:10;;;;;;;;;;;7.60;99.90;;;;;;5016175;28;19925;-77
2022/01/04 04:37:38;;;;;;;;;;;7.60;99.90;;;;;;4989393;28;19926;-77
2022/01/04 04:40:06;;;;;;;;;;;7.60;99.90;;;;;;5012231;28;20391;-77
2022/01/04 04:42:32;;;;;;;;;;;7.60;99.90;;;;;;5012248;28;19937;-77
2022/01/04 04:44:59;;;;;;;;;;;7.60;99.90;;;;;;5019713;28;19975;-77
2022/01/04 04:47:26;;;;;;;;;;;7.60;99.90;;;;;;5004755;28;19925;-77
2022/01/04 04:49:53;;;;;;;;;;;7.60;99.90;;;;;;5023561;28;19932;-77
2022/01/04 04:52:20;;;;;;;;;;;7.60;99.90;;;;;;5010975;28;19929;-77
2022/01/04 04:54:49;;;;;;;;;;;7.60;99.90;;;;;;5025020;28;19925;-77
2022/01/04 04:57:16;;;;;;;;;;;7.60;99.90;;;;;;5031759;28;20462;-77
2022/01/04 04:59:43;;;;;;;;;;;7.60;99.90;;;;;;5025850;28;20241;-77
2022/01/04 05:02:09;;;;;;;;;;;7.60;99.90;;;;;;5009229;28;19961;-77
2022/01/04 05:04:37;;;;;;;;;;;7.60;99.90;;;;;;5008953;28;20399;-77
2022/01/04 05:07:04;;;;;;;;;;;7.60;99.90;;;;;;5016683;28;20016;-77
2022/01/04 05:09:31;;;;;;;;;;;7.60;99.90;;;;;;4998699;28;20012;-77
2022/01/04 05:11:59;;;;;;;;;;;7.60;99.90;;;;;;5013260;28;19936;-76
2022/01/04 05:14:26;;;;;;;;;;;7.60;99.90;;;;;;5011594;28;19936;-77
2022/01/04 05:16:53;;;;;;;;;;;7.60;99.90;;;;;;4993599;28;19925;-77
2022/01/04 05:19:20;;;;;;;;;;;7.60;99.90;;;;;;5005222;28;19929;-77
2022/01/04 05:21:47;;;;;;;;;;;7.60;99.90;;;;;;5002740;28;20015;-77
2022/01/04 05:24:13;;;;;;;;;;;7.60;99.90;;;;;;5009065;28;19925;-77
2022/01/04 05:26:40;;;;;;;;;;;7.60;99.90;;;;;;5006971;28;20617;-77
2022/01/04 05:29:09;;;;;;;;;;;7.60;99.90;;;;;;5011801;28;19949;-78
2022/01/04 05:31:36;;;;;;;;;;;7.60;99.90;;;;;;5004564;28;19926;-77
2022/01/04 05:34:03;;;;;;;;;;;7.60;99.90;;;;;;4991567;28;19936;-77
2022/01/04 05:36:30;;;;;;;;;;;7.60;99.90;;;;;;5008004;28;19934;-77
2022/01/04 05:38:56;;;;;;;;;;;7.60;99.90;;;;;;5009499;28;19925;-77
2022/01/04 05:41:23;;;;;;;;;;;7.60;99.90;;;;;;4990471;28;19955;-77
2022/01/04 05:43:50;;;;;;;;;;;7.60;99.90;;;;;;5011560;28;19968;-77
2022/01/04 05:46:19;;;;;;;;;;;7.60;99.90;;;;;;5009386;28;19960;-77
2022/01/04 05:48:46;;;;;;;;;;;7.60;99.90;;;;;;5008372;28;19973;-77
2022/01/04 05:51:14;;;;;;;;;;;7.60;99.90;;;;;;5011369;28;20315;-77
2022/01/04 05:53:41;;;;;;;;;;;7.60;99.90;;;;;;5015459;28;20068;-77
2022/01/04 05:56:08;;;;;;;;;;;7.60;99.90;;;;;;5009073;28;19929;-77
2022/01/04 05:58:35;;;;;;;;;;;7.60;99.90;;;;;;5013178;28;19925;-76
2022/01/04 06:01:02;;;;;;;;;;;7.60;99.90;;;;;;5006768;28;19984;-78
2022/01/04 06:03:30;;;;;;;;;;;7.60;99.90;;;;;;5018279;28;19933;-77
2022/01/04 06:05:59;;;;;;;;;;;7.60;99.90;;;;;;5017426;28;19925;-77
2022/01/04 06:08:30;;;;;;;;;;;7.60;99.90;;;;;;5011360;28;20003;-77
2022/01/04 06:10:57;;;;;;;;;;;7.60;99.90;;;;;;5012841;28;20004;-77
2022/01/04 06:16:09;;;;;;;;;;;7.60;99.90;;;;;;5008853;28;20372;-77
2022/01/04 06:18:37;;;;;;;;;;;7.60;99.90;;;;;;5012219;28;19976;-77
2022/01/04 06:21:05;;;;;;;;;;;7.60;99.90;;;;;;5008475;28;20285;-78
2022/01/04 06:23:32;;;;;;;;;;;7.60;99.90;;;;;;5011526;28;19952;-78
2022/01/04 06:25:59;;;;;;;;;;;7.60;99.90;;;;;;5013953;28;19980;-77
2022/01/04 06:28:26;;;;;;;;;;;7.60;99.90;;;;;;5017757;28;19925;-77
2022/01/04 06:30:53;;;;;;;;;;;7.60;99.90;;;;;;5013540;28;19956;-77
2022/01/04 06:33:20;;;;;;;;;;;7.60;99.90;;;;;;5003361;28;19971;-78
2022/01/04 06:35:49;;;;;;;;;;;7.70;99.90;;;;;;5012325;28;19956;-77
2022/01/04 06:38:16;;;;;;;;;;;7.70;99.90;;;;;;5008494;28;20679;-77
2022/01/04 06:40:42;;;;;;;;;;;7.70;99.90;;;;;;5005601;28;20403;-77
2022/01/04 06:43:09;;;;;;;;;;;7.70;99.90;;;;;;5010317;28;19936;-78
2022/01/04 06:45:36;;;;;;;;;;;7.70;99.90;;;;;;5011445;28;19989;-77
2022/01/04 06:48:04;;;;;;;;;;;7.70;99.90;;;;;;4992717;28;19940;-77
2022/01/04 06:50:31;;;;;;;;;;;7.70;99.90;;;;;;5006280;28;20512;-77
2022/01/04 06:53:00;;;;;;;;;;;7.60;99.90;;;;;;5001543;28;19925;-77
2022/01/04 06:55:26;;;;;;;;;;;7.70;99.90;;;;;;5008430;28;19925;-77
2022/01/04 06:57:53;;;;;;;;;;;7.70;99.90;;;;;;5002997;28;19933;-77
2022/01/04 07:00:20;;;;;;;;;;;7.70;99.90;;;;;;5003721;28;19933;-78
2022/01/04 07:02:47;;;;;;;;;;;7.70;99.90;;;;;;5000654;28;19979;-79
2022/01/04 07:05:14;;;;;;;;;;;7.70;99.90;;;;;;4978854;28;19933;-78
2022/01/04 07:07:41;;;;;;;;;;;7.70;99.90;;;;;;5000816;28;19950;-77
2022/01/04 07:10:10;;;;;;;;;;;7.70;99.90;;;;;;4997594;28;19925;-77
2022/01/04 07:12:37;;;;;;;;;;;7.70;99.90;;;;;;4999939;28;19948;-77
2022/01/04 07:15:04;;;;;;;;;;;7.70;99.90;;;;;;5005216;28;19933;-78
2022/01/04 07:17:31;;;;;;;;;;;7.70;99.90;;;;;;5008863;28;19933;-78
2022/01/04 07:19:58;;;;;;;;;;;7.70;99.90;;;;;;5008098;28;19941;-77
2022/01/04 07:22:25;;;;;;;;;;;7.70;99.90;;;;;;5004507;28;19930;-77
2022/01/04 07:24:52;;;;;;;;;;;7.80;99.90;;;;;;5014536;28;20314;-77
2022/01/04 07:27:20;;;;;;;;;;;7.70;99.90;;;;;;5003572;28;19925;-77
2022/01/04 07:29:47;;;;;;;;;;;7.80;99.90;;;;;;4988651;28;19940;-76
2022/01/04 07:32:14;;;;;;;;;;;7.80;99.90;;;;;;4986931;28;19969;-78
2022/01/04 07:34:41;;;;;;;;;;;7.80;99.90;;;;;;5005015;28;19925;-77
2022/01/04 07:37:08;;;;;;;;;;;7.80;99.90;;;;;;5000919;28;19932;-78
2022/01/04 07:39:35;;;;;;;;;;;7.90;99.90;;;;;;5001129;28;19933;-78
2022/01/04 07:42:02;;;;;;;;;;;7.80;99.90;;;;;;5001667;28;19933;-77
2022/01/04 07:44:34;;;;;;;;;;;7.80;99.90;;;;;;5008729;28;20384;-77
2022/01/04 07:47:01;;;;;;;;;;;7.90;99.90;;;;;;5003133;28;19929;-78
2022/01/04 07:49:28;;;;;;;;;;;7.90;99.90;;;;;;5006148;28;19964;-77
2022/01/04 07:51:55;;;;;;;;;;;7.90;99.90;;;;;;4981690;28;19930;-78
2022/01/04 07:54:22;;;;;;;;;;;7.90;99.90;;;;;;5009354;28;20047;-77
2022/01/04 07:56:51;;;;;;;;;;;7.90;99.90;;;;;;5010978;28;19929;-78
2022/01/04 07:59:18;;;;;;;;;;;7.90;99.90;;;;;;5003582;28;20024;-78
2022/01/04 08:01:47;;;;;;;;;;;8.00;99.90;;;;;;4968096;28;19933;-78
2022/01/04 08:04:14;;;;;;;;;;;7.90;99.90;;;;;;5011616;28;20177;-77
2022/01/04 08:06:41;;;;;;;;;;;8.00;99.90;;;;;;4976720;28;19930;-77
2022/01/04 08:09:07;;;;;;;;;;;8.00;99.90;;;;;;5008404;28;20407;-77
2022/01/04 08:11:34;;;;;;;;;;;8.00;99.90;;;;;;5005241;28;19945;-78
2022/01/04 08:14:01;;;;;;;;;;;8.00;99.90;;;;;;5002733;28;20387;-77
2022/01/04 08:16:28;;;;;;;;;;;8.00;99.90;;;;;;5012012;28;19926;-77
2022/01/04 08:18:57;;;;;;;;;;;8.00;99.90;;;;;;5004933;28;19925;-78
2022/01/04 08:21:23;;;;;;;;;;;8.10;99.90;;;;;;4993927;28;19929;-77
2022/01/04 08:23:50;;;;;;;;;;;8.10;99.90;;;;;;5016194;28;20269;-77
2022/01/04 08:26:18;;;;;;;;;;;8.10;99.90;;;;;;5015950;28;19925;-77
2022/01/04 08:28:45;;;;;;;;;;;8.10;99.90;;;;;;5012716;28;19926;-78
2022/01/04 08:31:12;;;;;;;;;;;8.10;99.90;;;;;;5010823;28;19925;-78
2022/01/04 08:33:39;;;;;;;;;;;8.10;99.90;;;;;;5015618;28;19925;-78
2022/01/04 08:36:10;;;;;;;;;;;8.10;99.90;;;;;;5012414;28;19926;-78
2022/01/04 08:38:39;;;;;;;;;;;8.10;99.90;;;;;;4991275;28;19932;-77
2022/01/04 08:41:06;;;;;;;;;;;8.10;99.90;;;;;;5005928;28;20016;-77
2022/01/04 08:43:33;;;;;;;;;;;8.20;99.90;;;;;;5009058;28;20028;-78
2022/01/04 08:46:00;;;;;;;;;;;8.20;99.90;;;;;;5008579;28;19925;-78
2022/01/04 08:48:26;;;;;;;;;;;8.20;99.90;;;;;;5001617;28;19933;-77
2022/01/04 08:50:53;;;;;;;;;;;8.20;99.90;;;;;;5009829;28;20310;-77
2022/01/04 08:53:22;;;;;;;;;;;8.20;99.90;;;;;;5010418;28;19926;-77
2022/01/04 08:55:49;;;;;;;;;;;8.20;99.90;;;;;;5010450;28;20540;-78
2022/01/04 08:58:16;;;;;;;;;;;8.30;99.90;;;;;;5009898;28;19932;-78
2022/01/04 09:00:43;;;;;;;;;;;8.30;99.90;;;;;;4983025;28;19972;-78
2022/01/04 09:03:11;;;;;;;;;;;8.30;99.90;;;;;;5008724;28;20009;-78
2022/01/04 09:05:37;;;;;;;;;;;8.30;99.90;;;;;;5004390;28;20294;-77
2022/01/04 09:08:05;;;;;;;;;;;8.30;99.90;;;;;;4989300;28;19934;-77
2022/01/04 09:10:34;;;;;;;;;;;8.30;99.90;;;;;;4995008;28;19925;-77
2022/01/04 09:13:06;;;;;;;;;;;8.40;99.90;;;;;;5007802;28;20299;-77
2022/01/04 09:15:56;;;;;;;;;;;8.40;99.90;;;;;;5017903;28;19925;-78
2022/01/04 09:21:08;;;;;;;;;;;8.40;99.90;;;;;;5018948;28;20072;-77
2022/01/04 09:23:35;;;;;;;;;;;8.40;99.90;;;;;;5009945;28;19932;-77
2022/01/04 09:26:04;;;;;;;;;;;8.40;99.90;;;;;;5006554;28;20607;-78
2022/01/04 09:28:31;;;;;;;;;;;8.40;99.90;;;;;;5004879;28;20284;-77
2022/01/04 09:30:58;;;;;;;;;;;8.40;99.90;;;;;;5016681;28;19936;-77
2022/01/04 09:33:25;;;;;;;;;;;8.50;99.90;;;;;;5008214;28;19929;-77
2022/01/04 09:35:53;;;;;;;;;;;8.50;99.90;;;;;;5012235;28;20400;-77
2022/01/04 09:38:20;;;;;;;;;;;8.50;99.90;;;;;;5010723;28;19948;-79
2022/01/04 09:40:49;;;;;;;;;;;8.50;99.90;;;;;;5005480;28;19925;-77
2022/01/04 09:43:20;;;;;;;;;;;8.50;99.90;;;;;;5010117;28;19980;-78
2022/01/04 09:45:47;;;;;;;;;;;8.50;99.90;;;;;;5011646;28;20383;-79
2022/01/04 09:48:14;;;;;;;;;;;8.50;99.90;;;;;;5002117;28;20304;-79
2022/01/04 09:50:42;;;;;;;;;;;8.50;99.90;;;;;;5005779;28;19932;-78
2022/01/04 09:53:10;;;;;;;;;;;8.50;99.90;;;;;;5001905;28;19940;-78
2022/01/04 09:55:38;;;;;;;;;;;8.50;99.90;;;;;;5007584;28;19964;-78
2022/01/04 09:58:05;;;;;;;;;;;8.60;99.90;;;;;;5003935;28;20019;-78
2022/01/04 10:00:37;;;;;;;;;;;8.50;99.90;;;;;;5006450;28;19979;-78
2022/01/04 10:03:12;;;;;;;;;;;8.50;99.90;;;;;;5010413;28;19925;-78
2022/01/04 10:05:39;;;;;;;;;;;8.60;99.90;;;;;;5006032;28;19933;-78
2022/01/04 10:08:07;;;;;;;;;;;8.60;99.90;;;;;;5002682;28;19947;-78
2022/01/04 10:10:35;;;;;;;;;;;8.60;99.90;;;;;;5004109;28;19925;-78
2022/01/04 10:13:03;;;;;;;;;;;8.60;99.90;;;;;;5005284;28;19925;-78
2022/01/04 10:15:37;;;;;;;;;;;8.70;99.90;;;;;;5004428;28;20618;-78
2022/01/04 10:18:21;;;;;;;;;;;8.70;99.90;;;;;;4985949;28;19926;-78
2022/01/04 10:20:51;;;;;;;;;;;8.70;99.90;;;;;;4995508;28;19940;-78
2022/01/04 10:23:19;;;;;;;;;;;8.70;99.90;;;;;;4989855;28;19940;-78
2022/01/04 10:25:47;;;;;;;;;;;8.70;99.90;;;;;;5000387;28;20228;-78
2022/01/04 10:28:27;;;;;;;;;;;8.70;99.90;;;;;;4994592;28;19925;-77
2022/01/04 10:30:59;;;;;;;;;;;8.70;99.90;;;;;;4999100;28;19932;-78
2022/01/04 10:33:27;;;;;;;;;;;8.70;99.90;;;;;;5005554;28;20481;-78
2022/01/04 10:35:55;;;;;;;;;;;8.70;99.90;;;;;;5010204;28;19929;-78
2022/01/04 10:38:24;;;;;;;;;;;8.70;99.90;;;;;;5001323;28;20280;-78
2022/01/04 10:40:51;;;;;;;;;;;8.70;99.90;;;;;;5024046;28;20437;-78
2022/01/04 10:43:19;;;;;;;;;;;8.70;99.90;;;;;;5015332;28;19933;-78
2022/01/04 10:45:47;;;;;;;;;;;8.80;99.90;;;;;;5022863;28;19936;-78
2022/01/04 10:48:17;;;;;;;;;;;8.80;99.90;;;;;;5022538;28;20024;-77
2022/01/04 10:50:44;;;;;;;;;;;8.80;99.90;;;;;;5012675;28;19926;-78
2022/01/04 10:53:16;;;;;;;;;;;8.80;99.90;;;;;;5016579;28;19929;-77
2022/01/04 10:55:44;;;;;;;;;;;8.80;99.90;;;;;;5013444;28;19931;-77
2022/01/04 10:58:19;;;;;;;;;;;8.80;99.90;;;;;;5011239;28;20375;-77
2022/01/04 11:00:49;;;;;;;;;;;8.80;99.90;;;;;;4995031;28;20509;-77
2022/01/04 11:03:24;;;;;;;;;;;8.90;99.90;;;;;;5008300;28;19958;-78
2022/01/04 11:05:53;;;;;;;;;;;8.90;99.90;;;;;;5018739;28;20407;-78
2022/01/04 11:08:20;;;;;;;;;;;8.90;99.90;;;;;;5016169;28;20028;-78
2022/01/04 11:10:49;;;;;;;;;;;8.90;99.90;;;;;;5014859;28;20028;-78
2022/01/04 11:13:16;;;;;;;;;;;8.90;99.90;;;;;;5021230;28;20331;-78
2022/01/04 11:15:43;;;;;;;;;;;9.00;99.90;;;;;;5014969;28;20191;-79
2022/01/04 11:18:10;;;;;;;;;;;9.00;99.90;;;;;;5019552;28;20307;-77
2022/01/04 11:20:40;;;;;;;;;;;9.00;99.90;;;;;;5012624;28;19947;-77
2022/01/04 11:23:09;;;;;;;;;;;9.00;99.90;;;;;;5014226;28;20253;-77
2022/01/04 11:25:36;;;;;;;;;;;9.00;99.90;;;;;;5017695;28;19937;-77
2022/01/04 11:28:06;;;;;;;;;;;9.00;99.90;;;;;;5009810;28;19925;-77
2022/01/04 11:30:36;;;;;;;;;;;9.00;99.90;;;;;;4997409;28;20433;-78
2022/01/04 11:33:08;;;;;;;;;;;9.00;99.90;;;;;;5019916;28;19925;-77
2022/01/04 11:35:35;;;;;;;;;;;9.00;99.90;;;;;;5016061;28;19925;-77
2022/01/04 11:38:03;;;;;;;;;;;9.00;99.90;;;;;;5003231;28;19925;-77
2022/01/04 11:40:34;;;;;;;;;;;9.10;99.90;;;;;;5011222;28;19932;-77
2022/01/04 11:43:01;;;;;;;;;;;9.10;99.90;;;;;;5002337;28;19964;-77
2022/01/04 11:45:39;;;;;;;;;;;9.10;99.90;;;;;;5009200;28;19947;-78
2022/01/04 11:48:21;;;;;;;;;;;9.10;99.90;;;;;;5006051;28;19932;-78
2022/01/04 11:50:48;;;;;;;;;;;9.20;99.90;;;;;;5025123;28;19937;-77
2022/01/04 11:53:16;;;;;;;;;;;9.20;99.90;;;;;;5002651;28;19929;-77
2022/01/04 11:55:48;;;;;;;;;;;9.20;99.90;;;;;;5008910;28;19925;-77
2022/01/04 11:58:20;;;;;;;;;;;9.20;99.90;;;;;;4997789;28;19930;-78
2022/01/04 12:00:56;;;;;;;;;;;9.20;99.90;;;;;;5010848;28;19957;-77
2022/01/04 12:03:36;;;;;;;;;;;9.30;99.90;;;;;;5009348;28;19969;-78
2022/01/04 12:06:04;;;;;;;;;;;9.30;99.90;;;;;;5002774;28;19929;-77
2022/01/04 12:08:35;;;;;;;;;;;9.30;99.90;;;;;;5001723;28;19925;-77
2022/01/04 12:11:02;;;;;;;;;;;9.30;99.90;;;;;;5015961;28;20406;-77
2022/01/04 12:13:44;;;;;;;;;;;9.30;99.90;;;;;;5010694;28;19926;-78
2022/01/04 12:16:11;;;;;;;;;;;9.30;99.90;;;;;;5007419;28;19925;-77
2022/01/04 12:19:02;;;;;;;;;;;9.30;99.90;;;;;;5026006;28;20399;-77
2022/01/04 12:21:30;;;;;;;;;;;9.40;99.90;;;;;;5010833;28;20264;-77
2022/01/04 12:23:59;;;;;;;;;;;9.40;99.90;;;;;;5025366;28;20365;-77
2022/01/04 12:26:27;;;;;;;;;;;9.30;99.90;;;;;;5016607;28;19926;-77
2022/01/04 12:29:12;;;;;;;;;;;9.40;99.90;;;;;;5014528;28;19932;-77
2022/01/04 12:31:45;;;;;;;;;;;9.40;99.90;;;;;;5009974;28;20330;-77
2022/01/04 12:34:26;;;;;;;;;;;9.40;99.90;;;;;;5000344;28;19926;-77
2022/01/04 12:36:53;;;;;;;;;;;9.40;99.90;;;;;;5022291;28;19926;-78
2022/01/04 12:39:23;;;;;;;;;;;9.40;99.90;;;;;;5006664;28;20016;-77
2022/01/04 12:41:51;;;;;;;;;;;9.40;99.90;;;;;;5015542;28;19933;-77
2022/01/04 12:44:23;;;;;;;;;;;9.40;99.90;;;;;;5016441;28;20332;-77
2022/01/04 12:46:50;;;;;;;;;;;9.40;99.90;;;;;;5018544;28;20383;-77
2022/01/04 12:49:18;;;;;;;;;;;9.40;99.90;;;;;;5021729;28;19925;-77
2022/01/04 12:51:47;;;;;;;;;;;9.50;99.90;;;;;;5017803;28;19971;-77
2022/01/04 12:54:15;;;;;;;;;;;9.50;99.90;;;;;;5008679;28;19926;-77
2022/01/04 12:56:45;;;;;;;;;;;9.50;99.90;;;;;;5018374;28;20290;-78
2022/01/04 12:59:19;;;;;;;;;;;9.40;99.90;;;;;;5016605;28;19933;-77
2022/01/04 13:01:47;;;;;;;;;;;9.50;99.90;;;;;;5021551;28;19936;-78
2022/01/04 13:04:20;;;;;;;;;;;9.50;99.90;;;;;;5022631;28;19930;-77
2022/01/04 13:06:47;;;;;;;;;;;9.50;99.90;;;;;;5017687;28;19926;-77
2022/01/04 13:09:17;;;;;;;;;;;9.50;99.90;;;;;;5001543;28;19932;-78
2022/01/04 13:11:52;;;;;;;;;;;9.50;99.90;;;;;;5003619;28;19925;-77
2022/01/04 13:14:22;;;;;;;;;;;9.60;99.90;;;;;;5022183;28;19929;-77
2022/01/04 13:16:50;;;;;;;;;;;9.60;99.90;;;;;;5017517;28;19934;-77
2022/01/04 13:19:18;;;;;;;;;;;9.60;99.90;;;;;;4999041;28;19925;-77
2022/01/04 13:21:46;;;;;;;;;;;9.60;99.90;;;;;;5009910;28;19932;-77
2022/01/04 13:24:27;;;;;;;;;;;9.60;99.90;;;;;;5018187;28;19925;-77
2022/01/04 13:26:55;;;;;;;;;;;9.60;99.90;;;;;;5016332;28;19925;-78
2022/01/04 13:29:24;;;;;;;;;;;9.60;99.90;;;;;;5011550;28;19925;-77
2022/01/04 13:32:04;;;;;;;;;;;9.60;99.90;;;;;;5020844;28;20013;-78
2022/01/04 13:34:31;;;;;;;;;;;9.60;99.90;;;;;;5019992;28;19925;-77
2022/01/04 13:36:58;;;;;;;;;;;9.60;99.90;;;;;;5005453;28;19929;-78
2022/01/04 13:39:25;;;;;;;;;;;9.60;99.90;;;;;;5006467;28;19925;-77
2022/01/04 13:41:52;;;;;;;;;;;9.60;99.90;;;;;;5018354;28;20471;-77
2022/01/04 13:44:21;;;;;;;;;;;9.60;99.90;;;;;;5012855;28;19929;-77
2022/01/04 13:46:48;;;;;;;;;;;9.60;99.90;;;;;;5019750;28;20431;-77
2022/01/04 13:49:15;;;;;;;;;;;9.60;99.90;;;;;;5020644;28;19933;-77
2022/01/04 13:51:41;;;;;;;;;;;9.60;99.90;;;;;;5016277;28;20303;-77
2022/01/04 13:54:09;;;;;;;;;;;9.60;99.90;;;;;;4998170;28;20300;-77
2022/01/04 13:56:37;;;;;;;;;;;9.70;99.90;;;;;;4993437;28;19988;-78
2022/01/04 13:59:04;;;;;;;;;;;9.70;99.90;;;;;;5001372;28;19933;-77
2022/01/04 14:01:36;;;;;;;;;;;9.60;99.90;;;;;;4993325;28;19926;-77
2022/01/04 14:04:17;;;;;;;;;;;9.70;99.90;;;;;;5020120;28;19936;-77
2022/01/04 14:06:47;;;;;;;;;;;9.70;99.90;;;;;;5011051;28;20423;-77
2022/01/04 14:09:22;;;;;;;;;;;9.70;99.90;;;;;;5014066;28;19984;-77
2022/01/04 14:11:49;;;;;;;;;;;9.70;99.90;;;;;;5010505;28;21038;-77
2022/01/04 14:14:17;;;;;;;;;;;9.70;99.90;;;;;;5017272;28;20458;-78
2022/01/04 14:16:50;;;;;;;;;;;9.70;99.90;;;;;;5010970;28;19933;-77
2022/01/04 14:19:18;;;;;;;;;;;9.70;99.90;;;;;;5013834;28;20020;-77
2022/01/04 14:21:47;;;;;;;;;;;9.70;99.90;;;;;;5013588;28;19933;-77
2022/01/04 14:24:33;;;;;;;;;;;9.70;99.90;;;;;;5003100;28;19933;-77
2022/01/04 14:27:01;;;;;;;;;;;9.70;99.90;;;;;;5024858;28;20016;-77
2022/01/04 14:29:28;;;;;;;;;;;9.70;99.90;;;;;;5016949;28;19935;-77
2022/01/04 14:31:58;;;;;;;;;;;9.70;99.90;;;;;;5013624;28;20392;-78
2022/01/04 14:34:25;;;;;;;;;;;9.70;99.90;;;;;;4993814;28;20383;-78
2022/01/04 14:36:52;;;;;;;;;;;9.70;99.90;;;;;;5008430;28;20378;-78
2022/01/04 14:39:19;;;;;;;;;;;9.80;99.90;;;;;;5005187;28;19980;-77
2022/01/04 14:41:46;;;;;;;;;;;9.80;99.90;;;;;;5020368;28;19926;-77
2022/01/04 14:44:13;;;;;;;;;;;9.80;99.90;;;;;;5012132;28;19979;-77
2022/01/04 14:46:40;;;;;;;;;;;9.70;99.90;;;;;;5017274;28;19933;-77